首页
METAR-TAF:

METAR-TAF

机场 :

雅典埃莱夫塞里奥斯·韦尼泽洛斯国际机场

雅典, 希腊

纬度: 37-56N, 经度: 023-56E, 海拔: 94米

当前天气观测

该预报发布于26分钟前的11:20 UTC
风速12节,风向北转东北
温度 22°C
湿度 60%
气压 1016 hPa
能见度10公里或以上
少量云层高于3000英尺

METAR: LGAV 191120Z 03012KT 9999 FEW030 22/14 Q1016 NOSIG

时间: 14:46 (11:46 UTC)

预报

该预报发布于46分钟前的11:00 UTC
预报有效从19日的 12点(UTC)到 20日的 12点(UTC)
风速13节,风向北转东北
能见度10公里或以上
少量云层高于2500英尺
短暂存在
从 19日的 12点(UTC)到 19日的 16点(UTC)
少量云层高于2000英尺
多云层高于7000英尺
成为
从 19日的 18点(UTC)到 19日的 20点(UTC)
风速3节,风向多变
成为
从 20日的 04点(UTC)到 20日的 06点(UTC)
风速12节,风向北转东北

TAF: LGAV 191100Z 1912/2012 03013KT 9999 FEW025 TEMPO 1912/1916 FEW020 BKN070 BECMG 1918/1920 VRB03KT BECMG 2004/2006 03012KT

超过4000个机场的气象观测和天气预报(METAR&TAF报告)。

可查询的气象台以黄色和红色小点在地图上表示。

将鼠标移到小点上方,可查看气象台名称。

然后点击查看天气观测和预报。

如需切换地图:点击带黑十字的绿色按钮放大地图;点击带横线的绿色按钮缩小地图;或者点击绿色箭头查看邻近地区的地图。


METAR-TAF: